Time;durP1;ratioP1;P1;durP2;ratioP2;P2;SDS_P1;SDS_P2;PMS_P1;PMS_P2;Temp;Humidity;BMP_temperature;BMP_pressure;BME280_temperature;BME280_humidity;BME280_pressure;Samples;Min_cycle;Max_cycle;Signal;HPM_P1;HPM_P2
2020/12/01 00:01:48;;;;;;;12.70;8.20;;;7.60;96.70;;;;;;5118722;27;20490;-73
2020/12/01 00:04:16;;;;;;;11.80;8.10;;;7.60;96.70;;;;;;5116119;27;20046;-74
2020/12/01 00:06:44;;;;;;;12.98;7.80;;;7.60;96.70;;;;;;5115146;27;20067;-74
2020/12/01 00:09:12;;;;;;;11.15;8.10;;;7.60;96.70;;;;;;5121269;27;20225;-74
2020/12/01 00:11:39;;;;;;;9.90;7.65;;;7.60;96.70;;;;;;5138219;27;20047;-74
2020/12/01 00:14:08;;;;;;;11.80;7.65;;;7.60;96.70;;;;;;5137842;27;20039;-73
2020/12/01 00:16:35;;;;;;;9.68;7.20;;;7.70;96.70;;;;;;5122764;27;20062;-74
2020/12/01 00:19:03;;;;;;;12.90;7.78;;;7.60;96.70;;;;;;5114337;27;20095;-74
2020/12/01 00:21:30;;;;;;;13.43;7.78;;;7.60;96.70;;;;;;5137551;27;20389;-74
2020/12/01 00:23:58;;;;;;;11.75;7.13;;;7.50;96.70;;;;;;5119922;27;20051;-74
2020/12/01 00:26:25;;;;;;;12.63;8.50;;;7.50;96.70;;;;;;5121705;27;20504;-74
2020/12/01 00:28:52;;;;;;;10.75;7.07;;;7.50;96.70;;;;;;5117596;27;20120;-74
2020/12/01 00:31:21;;;;;;;11.57;7.63;;;7.50;96.70;;;;;;5135831;27;20485;-74
2020/12/01 00:33:48;;;;;;;10.35;7.10;;;7.40;96.70;;;;;;5115651;27;20073;-74
2020/12/01 00:36:16;;;;;;;11.63;7.57;;;7.40;96.70;;;;;;5118410;27;20089;-73
2020/12/01 00:38:43;;;;;;;12.07;7.95;;;7.50;96.70;;;;;;5117651;27;20035;-74
2020/12/01 00:41:13;;;;;;;11.20;6.82;;;7.50;96.70;;;;;;5118550;27;20510;-74
2020/12/01 00:43:40;;;;;;;10.52;7.05;;;7.50;96.70;;;;;;5117626;27;20039;-73
2020/12/01 00:46:07;;;;;;;10.05;6.82;;;7.50;96.70;;;;;;5138385;27;20038;-74
2020/12/01 00:48:36;;;;;;;10.43;7.72;;;7.40;96.70;;;;;;5112298;27;20111;-73
2020/12/01 00:51:03;;;;;;;12.20;7.47;;;7.40;96.70;;;;;;5117295;27;20038;-74
2020/12/01 00:53:31;;;;;;;10.05;6.85;;;7.30;96.70;;;;;;5122210;27;20134;-74
2020/12/01 00:55:58;;;;;;;11.23;6.80;;;7.30;96.70;;;;;;5103960;27;20069;-74
2020/12/01 00:58:26;;;;;;;11.18;7.50;;;7.30;96.70;;;;;;5141341;27;20022;-74
2020/12/01 01:01:09;;;;;;;11.05;6.80;;;7.20;96.70;;;;;;5115239;27;20046;-74
2020/12/01 01:03:37;;;;;;;10.85;6.78;;;7.30;96.70;;;;;;5116948;27;20042;-74
2020/12/01 01:06:04;;;;;;;9.55;6.57;;;7.40;96.70;;;;;;5116216;27;20036;-74
2020/12/01 01:08:31;;;;;;;12.50;7.57;;;7.50;96.70;;;;;;5117352;27;20039;-74
2020/12/01 01:10:58;;;;;;;13.18;7.03;;;7.60;96.70;;;;;;5113684;27;20053;-74
2020/12/01 01:13:25;;;;;;;10.80;7.72;;;7.50;96.70;;;;;;5116141;27;20041;-74
2020/12/01 01:15:52;;;;;;;10.85;7.07;;;7.40;96.70;;;;;;5100043;27;20039;-74
2020/12/01 01:18:19;;;;;;;10.93;6.75;;;7.50;96.70;;;;;;5142922;27;20035;-74
2020/12/01 01:20:47;;;;;;;9.98;6.85;;;7.50;96.70;;;;;;5122460;27;20035;-74
2020/12/01 01:23:14;;;;;;;9.35;7.00;;;7.40;96.70;;;;;;5142620;27;20030;-74
2020/12/01 01:25:41;;;;;;;11.68;6.68;;;7.40;96.70;;;;;;5104706;27;20043;-74
2020/12/01 01:28:09;;;;;;;11.02;6.90;;;7.40;96.70;;;;;;5120537;27;20357;-74
2020/12/01 01:30:39;;;;;;;10.20;7.55;;;7.40;96.70;;;;;;5140269;27;20096;-74
2020/12/01 01:33:06;;;;;;;9.70;6.68;;;7.50;96.70;;;;;;5106324;27;20051;-74
2020/12/01 01:35:34;;;;;;;13.20;6.63;;;7.50;96.70;;;;;;5137861;27;20046;-74
2020/12/01 01:38:02;;;;;;;10.77;7.10;;;7.40;96.70;;;;;;5123288;27;20039;-74
2020/12/01 01:40:30;;;;;;;10.20;7.63;;;7.50;96.70;;;;;;5138401;27;20035;-75
2020/12/01 01:42:58;;;;;;;12.70;7.50;;;7.50;96.70;;;;;;5107694;27;20050;-74
2020/12/01 01:45:36;;;;;;;9.25;6.45;;;7.50;96.70;;;;;;5117226;27;20040;-73
2020/12/01 01:48:15;;;;;;;9.65;7.10;;;7.60;96.70;;;;;;5105140;27;20050;-74
2020/12/01 01:50:45;;;;;;;11.52;7.40;;;7.60;96.70;;;;;;5121708;27;20057;-74
2020/12/01 01:53:13;;;;;;;8.98;6.55;;;7.60;96.70;;;;;;5119908;27;20127;-74
2020/12/01 01:55:41;;;;;;;10.63;6.80;;;7.70;96.70;;;;;;5118454;27;20578;-74
2020/12/01 01:58:10;;;;;;;8.43;6.28;;;7.60;96.70;;;;;;5140376;27;20035;-74
2020/12/01 02:00:56;;;;;;;10.48;6.68;;;7.60;96.70;;;;;;5136516;27;20099;-74
2020/12/01 02:03:26;;;;;;;11.00;6.45;;;7.60;96.70;;;;;;5124185;27;20137;-74
2020/12/01 02:05:54;;;;;;;9.38;6.07;;;7.70;96.70;;;;;;5123710;27;20042;-73
2020/12/01 02:08:23;;;;;;;8.63;6.10;;;7.80;96.70;;;;;;5118967;27;20444;-73
2020/12/01 02:10:51;;;;;;;8.75;5.75;;;7.90;96.60;;;;;;5120557;27;20052;-74
2020/12/01 02:13:28;;;;;;;8.55;6.30;;;8.00;96.50;;;;;;5121318;27;20519;-73
2020/12/01 02:15:56;;;;;;;10.52;6.28;;;8.10;96.30;;;;;;5118405;27;20045;-74
2020/12/01 02:18:34;;;;;;;9.38;6.28;;;8.00;96.10;;;;;;5118599;27;20119;-73
2020/12/01 02:21:19;;;;;;;7.47;5.63;;;8.00;96.40;;;;;;5106100;27;20046;-74
2020/12/01 02:23:47;;;;;;;9.32;6.55;;;7.90;96.70;;;;;;5134239;27;20519;-74
2020/12/01 02:26:18;;;;;;;10.52;6.65;;;7.90;96.70;;;;;;5104356;27;20118;-74
2020/12/01 02:28:45;;;;;;;9.50;6.53;;;7.90;96.70;;;;;;5119103;27;20046;-74
2020/12/01 02:31:12;;;;;;;8.82;5.78;;;8.00;96.70;;;;;;5103981;27;20137;-74
2020/12/01 02:33:40;;;;;;;8.60;6.25;;;8.00;96.70;;;;;;5121584;27;20034;-74
2020/12/01 02:36:07;;;;;;;8.10;5.43;;;8.00;96.70;;;;;;5141678;27;20066;-74
2020/12/01 02:38:34;;;;;;;9.70;5.45;;;8.10;96.50;;;;;;5139688;27;20296;-73
2020/12/01 02:41:02;;;;;;;9.75;6.05;;;8.10;96.40;;;;;;5119245;27;20930;-74
2020/12/01 02:43:29;;;;;;;8.75;5.82;;;8.10;96.50;;;;;;5118879;27;20042;-74
2020/12/01 02:45:57;;;;;;;11.45;6.40;;;8.10;96.70;;;;;;5103739;27;20039;-73
2020/12/01 02:48:24;;;;;;;9.40;6.07;;;8.10;96.50;;;;;;5122554;27;20034;-74
2020/12/01 02:50:51;;;;;;;8.98;6.18;;;8.10;96.50;;;;;;5139716;27;20039;-74
2020/12/01 02:53:18;;;;;;;8.07;5.53;;;8.00;96.50;;;;;;5119737;27;20031;-74
2020/12/01 02:55:45;;;;;;;8.95;5.72;;;8.10;96.40;;;;;;5138816;27;20043;-74
2020/12/01 02:58:12;;;;;;;7.85;5.40;;;8.10;96.30;;;;;;5122004;27;20043;-74
2020/12/01 03:00:40;;;;;;;9.13;5.90;;;8.10;96.40;;;;;;5114953;27;20101;-73
2020/12/01 03:03:08;;;;;;;7.70;5.35;;;8.00;96.30;;;;;;5116966;27;20050;-73
2020/12/01 03:05:35;;;;;;;8.38;5.30;;;7.90;96.70;;;;;;5139576;27;20034;-74
2020/12/01 03:08:03;;;;;;;9.05;5.93;;;8.10;96.70;;;;;;5119361;27;20570;-74
2020/12/01 03:10:30;;;;;;;7.70;5.50;;;8.10;96.70;;;;;;5121120;27;20037;-73
2020/12/01 03:12:57;;;;;;;7.50;5.75;;;8.10;96.70;;;;;;5120959;27;20030;-74
2020/12/01 03:15:24;;;;;;;7.82;5.53;;;8.10;96.70;;;;;;5137767;27;20391;-74
2020/12/01 03:17:52;;;;;;;10.40;6.20;;;8.10;96.70;;;;;;5115128;27;20045;-74
2020/12/01 03:20:19;;;;;;;8.20;5.45;;;8.10;96.70;;;;;;5134431;27;20039;-74
2020/12/01 03:22:46;;;;;;;9.30;5.82;;;8.10;96.70;;;;;;5121083;27;20061;-74
2020/12/01 03:25:13;;;;;;;7.97;5.35;;;8.10;96.70;;;;;;5116319;27;20031;-73
2020/12/01 03:27:40;;;;;;;7.35;5.55;;;8.10;96.50;;;;;;5141215;27;20039;-74
2020/12/01 03:30:08;;;;;;;9.77;5.20;;;8.20;96.40;;;;;;5119937;27;20066;-74
2020/12/01 03:32:35;;;;;;;9.30;5.63;;;8.20;96.30;;;;;;5139461;27;20039;-73
2020/12/01 03:35:03;;;;;;;8.98;5.65;;;8.20;96.50;;;;;;5105042;27;20134;-74
2020/12/01 03:37:30;;;;;;;8.65;5.70;;;8.10;96.70;;;;;;5123114;27;20031;-74
2020/12/01 03:39:57;;;;;;;7.10;5.15;;;8.10;96.70;;;;;;5116527;27;20031;-74
2020/12/01 03:42:24;;;;;;;8.93;5.57;;;8.10;96.70;;;;;;5122208;27;20049;-73
2020/12/01 03:44:52;;;;;;;8.93;5.50;;;8.00;96.70;;;;;;5119062;27;20034;-74
2020/12/01 03:47:19;;;;;;;8.52;5.80;;;8.00;96.70;;;;;;5113327;27;20042;-74
2020/12/01 03:49:46;;;;;;;6.85;5.03;;;8.00;96.70;;;;;;5121965;27;20465;-74
2020/12/01 03:52:14;;;;;;;6.75;4.95;;;8.00;96.70;;;;;;5123195;27;20054;-74
2020/12/01 03:54:41;;;;;;;7.63;5.10;;;8.10;96.40;;;;;;5119885;27;20047;-74
2020/12/01 03:57:09;;;;;;;8.35;5.35;;;8.10;96.50;;;;;;5103931;27;20066;-74
2020/12/01 03:59:36;;;;;;;7.38;5.25;;;8.00;96.70;;;;;;5100264;27;20500;-73
2020/12/01 04:02:03;;;;;;;9.48;5.90;;;8.00;96.70;;;;;;5105896;27;20420;-73
2020/12/01 04:04:30;;;;;;;6.75;5.00;;;8.00;96.70;;;;;;5137410;27;20031;-74
2020/12/01 04:06:58;;;;;;;6.78;4.68;;;8.00;96.70;;;;;;5103604;27;20046;-73
2020/12/01 04:09:25;;;;;;;9.73;5.20;;;8.00;96.70;;;;;;5134000;27;20559;-73
2020/12/01 04:11:53;;;;;;;8.10;5.68;;;8.10;96.70;;;;;;5116540;27;20133;-73
2020/12/01 04:14:20;;;;;;;6.60;4.90;;;8.00;96.70;;;;;;5118095;27;20039;-73
2020/12/01 04:16:48;;;;;;;7.35;5.00;;;8.00;96.70;;;;;;5120338;27;20070;-73
2020/12/01 04:19:15;;;;;;;8.90;5.25;;;7.90;96.70;;;;;;5117590;27;20038;-73
2020/12/01 04:21:42;;;;;;;7.22;5.40;;;8.00;96.70;;;;;;5122386;27;20042;-73
2020/12/01 04:24:09;;;;;;;9.02;5.40;;;7.90;96.70;;;;;;5130434;27;20039;-73
2020/12/01 04:26:37;;;;;;;5.68;4.88;;;7.90;96.70;;;;;;5117903;27;20095;-73
2020/12/01 04:29:04;;;;;;;8.88;5.65;;;7.90;96.70;;;;;;5113212;27;20035;-74
2020/12/01 04:31:32;;;;;;;6.93;5.03;;;7.90;96.70;;;;;;5137946;27;20053;-73
2020/12/01 04:33:59;;;;;;;8.10;5.20;;;7.90;96.70;;;;;;5117449;27;20083;-74
2020/12/01 04:36:26;;;;;;;8.50;5.85;;;7.90;96.70;;;;;;5137087;27;20046;-73
2020/12/01 04:38:53;;;;;;;9.20;5.93;;;7.90;96.70;;;;;;5105039;27;20099;-74
2020/12/01 04:41:20;;;;;;;9.32;5.75;;;7.90;96.70;;;;;;5118020;27;20521;-73
2020/12/01 04:43:54;;;;;;;8.25;5.57;;;7.70;96.70;;;;;;5108595;27;20832;-74
2020/12/01 04:46:25;;;;;;;8.18;4.95;;;7.70;96.70;;;;;;5114857;27;20031;-73
2020/12/01 04:48:56;;;;;;;7.50;5.03;;;7.70;96.70;;;;;;5116735;27;20151;-73
2020/12/01 04:51:42;;;;;;;6.78;4.93;;;7.70;96.70;;;;;;5130125;27;20519;-74
2020/12/01 04:54:28;;;;;;;6.40;4.50;;;7.80;96.70;;;;;;5113288;27;20038;-74
2020/12/01 04:57:07;;;;;;;7.22;5.38;;;7.90;96.70;;;;;;5104616;27;20054;-74
2020/12/01 04:59:48;;;;;;;8.18;5.35;;;7.80;96.70;;;;;;5106837;27;20051;-74
2020/12/01 05:02:36;;;;;;;9.35;5.55;;;7.90;96.70;;;;;;5101386;27;20062;-73
2020/12/01 05:05:20;;;;;;;7.50;5.57;;;7.90;96.70;;;;;;5142040;27;20630;-73
2020/12/01 05:08:15;;;;;;;7.88;5.53;;;7.90;96.70;;;;;;5128090;27;20118;-73
2020/12/01 05:10:46;;;;;;;7.13;4.95;;;7.90;96.70;;;;;;5138294;27;20039;-73
2020/12/01 05:13:19;;;;;;;8.05;5.18;;;7.80;96.70;;;;;;5123044;27;20483;-74
2020/12/01 05:15:53;;;;;;;7.70;5.07;;;7.80;96.70;;;;;;5135373;27;20088;-73
2020/12/01 05:18:22;;;;;;;6.93;5.03;;;7.80;96.70;;;;;;5137534;27;20108;-74
2020/12/01 05:20:52;;;;;;;8.50;5.93;;;7.80;96.70;;;;;;5140040;27;20472;-74
2020/12/01 05:23:25;;;;;;;7.07;4.78;;;7.80;96.70;;;;;;5136735;27;20033;-73
2020/12/01 05:26:01;;;;;;;7.13;5.13;;;7.70;96.70;;;;;;5112201;27;20043;-74
2020/12/01 05:28:28;;;;;;;6.88;5.13;;;7.70;96.70;;;;;;5106007;27;20422;-73
2020/12/01 05:31:01;;;;;;;8.10;5.25;;;7.70;96.70;;;;;;5137472;27;20054;-73
2020/12/01 05:33:31;;;;;;;8.07;5.32;;;7.80;96.70;;;;;;5124752;27;20595;-73
2020/12/01 05:36:17;;;;;;;7.18;5.40;;;7.80;96.70;;;;;;5138708;27;20084;-74
2020/12/01 05:38:55;;;;;;;;;;;7.90;96.70;;;;;;5139777;27;20523;-74
2020/12/01 05:41:25;;;;;;;6.95;4.80;;;8.00;96.70;;;;;;5110013;27;20403;-73
2020/12/01 05:43:55;;;;;;;7.15;4.70;;;8.00;96.70;;;;;;5105608;27;20426;-73
2020/12/01 05:46:32;;;;;;;6.38;4.72;;;8.10;96.70;;;;;;5141243;27;20062;-73
2020/12/01 05:49:04;;;;;;;8.73;5.40;;;8.10;96.70;;;;;;5135842;27;20039;-74
2020/12/01 05:51:40;;;;;;;7.00;4.90;;;8.00;96.70;;;;;;5122118;27;20054;-74
2020/12/01 05:54:13;;;;;;;;;;;8.10;96.70;;;;;;5135848;27;20038;-74
2020/12/01 05:56:47;;;;;;;6.60;4.45;;;8.10;96.70;;;;;;5139537;27;19927;-74
2020/12/01 05:59:17;;;;;;;7.07;4.65;;;8.20;96.70;;;;;;5116182;27;20395;-74
2020/12/01 06:01:49;;;;;;;6.32;4.40;;;8.10;96.70;;;;;;5121022;27;20050;-74
2020/12/01 06:04:20;;;;;;;7.03;4.93;;;8.00;96.70;;;;;;5119069;27;20400;-74
2020/12/01 06:07:01;;;;;;;8.05;5.07;;;8.00;96.70;;;;;;5120872;27;20043;-74
2020/12/01 06:09:49;;;;;;;8.05;4.90;;;8.10;96.70;;;;;;5119463;27;20049;-73
2020/12/01 06:12:24;;;;;;;9.15;5.07;;;8.20;96.70;;;;;;5120765;27;20576;-74
2020/12/01 06:14:57;;;;;;;9.98;4.78;;;8.20;96.70;;;;;;5123015;27;20121;-74
2020/12/01 06:17:37;;;;;;;7.22;4.90;;;8.20;96.70;;;;;;5119635;27;20054;-73
2020/12/01 06:20:14;;;;;;;7.50;4.60;;;8.20;96.70;;;;;;5121700;27;20046;-73
2020/12/01 06:23:05;;;;;;;6.95;4.93;;;8.30;96.70;;;;;;5119761;27;20043;-73
2020/12/01 06:25:55;;;;;;;6.97;4.32;;;8.30;96.70;;;;;;5122018;27;20046;-73
2020/12/01 06:28:45;;;;;;;6.18;3.70;;;8.30;96.70;;;;;;5118159;27;20045;-74
2020/12/01 06:31:35;;;;;;;5.78;4.00;;;8.40;96.70;;;;;;5120329;27;20055;-72
2020/12/01 06:34:24;;;;;;;7.05;4.28;;;8.50;96.70;;;;;;5115802;27;20035;-73
2020/12/01 06:37:13;;;;;;;4.95;3.95;;;8.50;96.70;;;;;;5100504;27;20539;-74
2020/12/01 06:39:48;;;;;;;6.20;4.03;;;8.50;96.70;;;;;;5117465;27;20124;-74
2020/12/01 06:42:21;;;;;;;6.65;4.53;;;8.50;96.70;;;;;;5111019;27;20039;-74
2020/12/01 06:44:55;;;;;;;7.32;4.30;;;8.50;96.70;;;;;;5116729;27;20046;-74
2020/12/01 06:47:25;;;;;;;7.78;4.53;;;8.40;96.70;;;;;;5131447;27;20067;-73
2020/12/01 06:49:57;;;;;;;7.25;4.97;;;8.40;96.70;;;;;;5117312;27;20180;-74
2020/12/01 06:52:25;;;;;;;5.63;4.13;;;8.30;96.70;;;;;;5113177;27;20053;-73
2020/12/01 06:54:55;;;;;;;8.38;4.35;;;8.30;96.70;;;;;;5115518;27;20123;-73
2020/12/01 06:57:26;;;;;;;6.35;4.43;;;8.30;96.70;;;;;;5118212;27;20387;-73
2020/12/01 06:59:53;;;;;;;7.63;4.25;;;8.20;96.70;;;;;;5100389;27;20051;-74
2020/12/01 07:02:26;;;;;;;6.13;4.00;;;8.30;96.70;;;;;;5117284;27;20091;-74
2020/12/01 07:05:11;;;;;;;8.73;4.60;;;8.30;96.70;;;;;;5119350;27;20035;-73
2020/12/01 07:07:42;;;;;;;7.47;4.93;;;8.30;96.70;;;;;;5099790;27;20051;-74
2020/12/01 07:10:26;;;;;;;7.30;4.32;;;8.40;96.70;;;;;;5116897;27;20404;-74
2020/12/01 07:13:02;;;;;;;7.40;4.55;;;8.50;96.70;;;;;;5118589;27;20487;-74
2020/12/01 07:15:40;;;;;;;5.97;4.20;;;8.50;96.70;;;;;;5097745;27;20650;-74
2020/12/01 07:18:21;;;;;;;7.22;4.45;;;8.50;96.70;;;;;;5095928;27;20031;-73
2020/12/01 07:21:11;;;;;;;6.95;4.38;;;8.50;96.70;;;;;;5111848;27;20241;-74
2020/12/01 07:23:49;;;;;;;6.38;4.70;;;8.50;96.70;;;;;;5118532;27;20114;-73
2020/12/01 07:26:25;;;;;;;6.75;4.20;;;8.50;96.70;;;;;;5119370;27;20039;-74
2020/12/01 07:29:00;;;;;;;6.43;4.55;;;8.40;96.70;;;;;;5113843;27;20070;-74
2020/12/01 07:31:30;;;;;;;7.13;5.25;;;8.50;96.70;;;;;;5117990;27;20059;-74
2020/12/01 07:34:02;;;;;;;8.07;5.50;;;8.50;96.70;;;;;;5116211;27;20255;-74
2020/12/01 07:36:36;;;;;;;8.95;5.13;;;8.50;96.70;;;;;;5102643;27;20299;-73
2020/12/01 07:39:10;;;;;;;6.90;4.85;;;8.50;96.70;;;;;;5116711;27;20466;-74
2020/12/01 07:41:48;;;;;;;7.18;4.80;;;8.50;96.70;;;;;;5117411;27;20042;-74
2020/12/01 07:44:18;;;;;;;7.70;5.05;;;8.50;96.70;;;;;;5114665;27;20040;-74
2020/12/01 07:49:16;;;;;;;6.68;5.03;;;8.60;96.70;;;;;;5118127;27;20035;-73
2020/12/01 07:51:46;;;;;;;8.32;5.40;;;8.60;96.70;;;;;;5101443;27;20043;-74
2020/12/01 07:54:18;;;;;;;8.20;5.65;;;8.60;96.70;;;;;;5110805;27;20126;-74
2020/12/01 07:56:45;;;;;;;10.10;6.28;;;8.60;96.70;;;;;;5116831;27;20395;-74
2020/12/01 07:59:14;;;;;;;8.60;6.03;;;8.50;96.70;;;;;;5099107;27;20126;-74
2020/12/01 08:01:43;;;;;;;8.02;5.75;;;8.50;96.70;;;;;;5117000;27;20047;-73
2020/12/01 08:04:13;;;;;;;10.90;6.63;;;8.60;96.70;;;;;;5122017;27;20081;-74
2020/12/01 08:06:41;;;;;;;12.07;7.90;;;8.60;96.70;;;;;;5113824;27;20043;-74
2020/12/01 08:09:15;;;;;;;13.82;7.85;;;8.60;96.70;;;;;;5099280;27;20039;-74
2020/12/01 08:11:43;;;;;;;11.75;7.25;;;8.60;96.70;;;;;;5115501;27;20516;-73
2020/12/01 08:14:11;;;;;;;12.55;6.70;;;8.60;96.70;;;;;;5097672;27;20411;-74
2020/12/01 08:16:39;;;;;;;9.43;6.65;;;8.60;96.70;;;;;;5096264;27;20491;-74
2020/12/01 08:19:09;;;;;;;9.93;6.60;;;8.60;96.70;;;;;;5115041;27;20523;-74
2020/12/01 08:21:39;;;;;;;10.20;7.00;;;8.50;96.70;;;;;;5118123;27;20123;-74
2020/12/01 08:24:11;;;;;;;11.07;7.60;;;8.50;96.70;;;;;;5117869;27;20051;-74
2020/12/01 08:26:40;;;;;;;10.73;7.50;;;8.50;96.70;;;;;;5099908;27;20047;-73
2020/12/01 08:29:15;;;;;;;10.73;7.10;;;8.60;96.70;;;;;;5113288;27;20031;-74
2020/12/01 08:31:53;;;;;;;9.95;7.03;;;8.60;96.70;;;;;;5097488;28;20141;-74
2020/12/01 08:34:33;;;;;;;12.43;7.53;;;8.70;96.70;;;;;;5116522;27;20042;-74
2020/12/01 08:37:09;;;;;;;9.27;6.93;;;8.70;96.70;;;;;;5118549;27;20039;-74
2020/12/01 08:39:48;;;;;;;13.27;7.85;;;8.80;96.70;;;;;;5115366;27;20404;-74
2020/12/01 08:42:24;;;;;;;10.32;7.38;;;8.80;96.70;;;;;;5113767;27;20104;-72
2020/12/01 08:45:04;;;;;;;11.85;6.65;;;8.80;96.70;;;;;;5116877;27;20046;-74
2020/12/01 08:47:32;;;;;;;13.05;7.35;;;8.80;96.70;;;;;;5107750;27;20080;-75
2020/12/01 08:49:59;;;;;;;14.13;7.32;;;8.90;96.70;;;;;;5115303;27;20526;-74
2020/12/01 08:52:33;;;;;;;9.85;6.32;;;8.90;96.70;;;;;;5088427;28;20043;-75
2020/12/01 08:55:17;;;;;;;11.20;6.65;;;8.90;96.70;;;;;;5107442;27;20040;-74
2020/12/01 08:57:47;;;;;;;11.23;7.07;;;9.00;96.70;;;;;;5111527;27;20510;-75
2020/12/01 09:00:23;;;;;;;11.68;6.50;;;9.00;96.70;;;;;;5115806;27;20203;-75
2020/12/01 09:02:52;;;;;;;13.20;7.28;;;9.00;96.70;;;;;;5114223;27;20243;-75
2020/12/01 09:05:27;;;;;;;11.80;7.15;;;9.00;96.70;;;;;;5117474;27;20042;-75
2020/12/01 09:08:04;;;;;;;11.52;7.65;;;9.00;96.70;;;;;;5111965;27;20080;-74
2020/12/01 09:10:32;;;;;;;14.13;8.75;;;9.10;96.70;;;;;;5111538;27;20054;-74
2020/12/01 09:13:13;;;;;;;17.15;10.15;;;9.10;96.70;;;;;;5113664;27;20039;-74
2020/12/01 09:15:53;;;;;;;15.32;10.25;;;9.10;96.70;;;;;;5116811;27;20127;-75
2020/12/01 09:18:41;;;;;;;20.65;12.35;;;9.20;96.70;;;;;;5113771;27;20089;-75
2020/12/01 09:23:36;;;;;;;18.08;10.73;;;9.20;96.70;;;;;;5117911;27;20512;-72
2020/12/01 09:26:16;;;;;;;15.10;9.43;;;9.30;96.70;;;;;;5118096;27;20033;-73
2020/12/01 09:28:47;;;;;;;13.85;8.98;;;9.40;96.70;;;;;;5117168;27;20571;-73
2020/12/01 09:31:16;;;;;;;16.52;9.45;;;9.60;96.40;;;;;;5114031;27;20144;-73
2020/12/01 09:33:44;;;;;;;13.88;8.07;;;9.80;96.20;;;;;;5099559;28;20812;-73
2020/12/01 09:36:16;;;;;;;12.05;6.15;;;9.90;95.50;;;;;;5096142;27;20587;-73
2020/12/01 09:38:43;;;;;;;10.65;5.72;;;10.10;94.60;;;;;;5120301;27;20035;-73
2020/12/01 09:41:13;;;;;;;6.47;4.80;;;10.10;94.40;;;;;;5116552;27;20084;-73
2020/12/01 09:43:46;;;;;;;6.47;4.38;;;10.10;94.00;;;;;;5119198;27;20031;-73
2020/12/01 09:46:14;;;;;;;8.55;5.20;;;10.10;93.60;;;;;;5115703;27;20366;-73
2020/12/01 09:48:43;;;;;;;8.75;5.57;;;10.10;93.20;;;;;;5122595;27;20080;-73
2020/12/01 09:51:12;;;;;;;12.07;6.55;;;9.90;93.20;;;;;;5123945;27;20035;-73
2020/12/01 09:59:22;;;;;;;10.70;6.20;;;10.30;93.10;;;;;;5106113;27;20484;-73
2020/12/01 10:09:38;;;;;;;12.93;6.60;;;10.40;92.80;;;;;;5120425;27;20099;-73
2020/12/01 10:20:16;;;;;;;8.98;5.82;;;10.60;91.90;;;;;;5117309;27;20074;-73
2020/12/01 10:35:34;;;;;;;10.50;5.75;;;10.50;92.50;;;;;;5113212;27;19923;-73
2020/12/01 10:38:03;;;;;;;11.02;5.60;;;10.40;92.90;;;;;;5098051;27;20039;-74
2020/12/01 10:40:31;;;;;;;8.27;5.32;;;10.30;93.20;;;;;;5116067;27;20126;-74
2020/12/01 10:42:58;;;;;;;10.13;6.10;;;10.30;93.30;;;;;;5135972;27;20579;-73
2020/12/01 10:45:28;;;;;;;11.38;7.75;;;10.30;93.40;;;;;;5121084;27;20140;-74
2020/12/01 10:47:57;;;;;;;11.07;7.10;;;10.40;93.60;;;;;;5121795;27;20043;-73
2020/12/01 10:50:27;;;;;;;9.40;6.65;;;10.30;92.70;;;;;;5099964;27;20042;-74
2020/12/01 10:52:56;;;;;;;8.85;6.18;;;10.30;92.90;;;;;;5119040;27;20204;-74
2020/12/01 10:55:27;;;;;;;10.07;5.90;;;10.30;93.00;;;;;;5117829;27;20058;-74
2020/12/01 10:57:55;;;;;;;10.23;6.35;;;10.30;93.40;;;;;;5117161;27;20062;-75
2020/12/01 11:00:24;;;;;;;11.25;6.10;;;10.40;92.80;;;;;;5115167;27;20032;-73
2020/12/01 11:02:52;;;;;;;9.80;5.78;;;10.50;92.60;;;;;;5117288;27;20039;-74
2020/12/01 11:05:23;;;;;;;7.28;5.15;;;10.60;92.40;;;;;;5115670;27;20047;-73
2020/12/01 11:07:50;;;;;;;7.65;5.30;;;10.70;91.70;;;;;;5118837;27;20046;-71
2020/12/01 11:10:17;;;;;;;7.80;5.22;;;10.70;91.60;;;;;;5115385;27;20039;-73
2020/12/01 11:12:46;;;;;;;6.90;5.13;;;10.70;91.90;;;;;;5115367;27;20079;-74
2020/12/01 11:15:14;;;;;;;9.60;5.47;;;10.60;91.80;;;;;;5118485;27;20088;-74
2020/12/01 11:17:41;;;;;;;11.23;6.45;;;10.70;91.80;;;;;;5115298;27;20066;-73
2020/12/01 11:20:11;;;;;;;12.57;7.68;;;10.60;92.00;;;;;;5119816;27;20050;-73
2020/12/01 11:22:39;;;;;;;11.32;7.18;;;10.70;91.90;;;;;;5119220;27;20070;-72
2020/12/01 11:25:07;;;;;;;10.60;6.53;;;10.90;92.20;;;;;;5099079;27;20424;-73
2020/12/01 11:27:35;;;;;;;11.40;6.47;;;11.00;91.40;;;;;;5117904;27;20088;-73
2020/12/01 11:30:06;;;;;;;10.20;6.13;;;11.10;91.00;;;;;;5114249;27;20047;-74
2020/12/01 11:32:33;;;;;;;10.23;6.03;;;11.20;90.80;;;;;;5120426;27;20459;-74
2020/12/01 11:35:00;;;;;;;8.43;5.32;;;11.20;90.90;;;;;;5114925;27;20036;-74
2020/12/01 11:37:28;;;;;;;10.15;5.82;;;11.10;90.70;;;;;;5115218;27;20116;-73
2020/12/01 11:39:55;;;;;;;8.38;4.85;;;11.10;90.80;;;;;;5115167;27;20458;-73
2020/12/01 11:42:23;;;;;;;8.15;5.90;;;11.10;90.60;;;;;;5117615;27;20042;-74
2020/12/01 11:44:50;;;;;;;9.85;6.40;;;11.10;91.30;;;;;;5117226;27;20035;-73
2020/12/01 11:47:19;;;;;;;10.65;6.72;;;11.20;90.70;;;;;;5093511;27;20043;-73
2020/12/01 11:49:46;;;;;;;11.48;6.60;;;11.20;90.70;;;;;;5114549;27;20126;-74
2020/12/01 11:52:14;;;;;;;12.18;6.32;;;11.10;90.50;;;;;;5130998;27;20471;-73
2020/12/01 11:54:41;;;;;;;9.15;6.75;;;11.10;90.10;;;;;;5111918;27;20039;-73
2020/12/01 11:57:08;;;;;;;10.32;6.72;;;11.00;90.80;;;;;;5100378;27;20039;-75
2020/12/01 11:59:36;;;;;;;12.15;7.60;;;10.90;91.10;;;;;;5114748;27;20043;-73
2020/12/01 12:02:04;;;;;;;10.27;6.57;;;10.80;91.20;;;;;;5112525;27;20782;-72
2020/12/01 12:04:32;;;;;;;10.45;6.82;;;10.80;91.80;;;;;;5116172;27;20449;-73
2020/12/01 12:07:00;;;;;;;8.30;5.65;;;10.80;91.80;;;;;;5100240;27;20288;-75
2020/12/01 12:09:27;;;;;;;7.65;5.13;;;10.80;91.60;;;;;;5116677;27;20039;-74
2020/12/01 12:11:55;;;;;;;9.40;6.32;;;10.80;91.30;;;;;;5114563;27;20057;-74
2020/12/01 12:14:22;;;;;;;10.18;6.13;;;10.80;91.60;;;;;;5115777;27;20039;-73
2020/12/01 12:16:50;;;;;;;9.05;6.57;;;10.80;91.60;;;;;;5096574;27;20548;-74
2020/12/01 12:19:17;;;;;;;11.68;7.25;;;10.80;91.80;;;;;;5120632;27;20668;-73
2020/12/01 12:21:46;;;;;;;9.63;6.13;;;10.90;91.80;;;;;;5112418;27;20047;-73
2020/12/01 12:24:13;;;;;;;6.70;5.35;;;10.80;91.50;;;;;;5114535;27;20050;-72
2020/12/01 12:26:41;;;;;;;10.43;6.10;;;10.90;91.50;;;;;;5111872;27;20047;-74
2020/12/01 12:29:08;;;;;;;9.27;5.57;;;10.90;91.70;;;;;;5114733;27;20039;-72
2020/12/01 12:31:35;;;;;;;10.02;6.22;;;10.90;91.80;;;;;;5116000;27;20130;-73
2020/12/01 12:34:03;;;;;;;8.05;5.20;;;10.90;91.90;;;;;;5115011;27;20043;-73
2020/12/01 12:36:30;;;;;;;7.88;5.22;;;11.00;91.90;;;;;;5101832;28;20043;-73
2020/12/01 12:38:59;;;;;;;8.95;5.82;;;11.00;91.80;;;;;;5112032;27;20073;-75
2020/12/01 12:41:27;;;;;;;10.85;6.28;;;11.00;91.80;;;;;;5115485;27;20072;-74
2020/12/01 12:43:54;;;;;;;8.73;5.57;;;11.10;92.00;;;;;;5116250;27;20103;-75
2020/12/01 12:46:21;;;;;;;8.48;5.60;;;11.10;91.80;;;;;;5114459;27;20302;-75
2020/12/01 12:48:49;;;;;;;9.75;5.65;;;11.10;92.10;;;;;;5114542;27;20047;-73
2020/12/01 12:51:16;;;;;;;7.07;5.40;;;11.10;92.00;;;;;;5119029;27;20561;-73
2020/12/01 12:53:43;;;;;;;10.52;6.20;;;11.10;92.20;;;;;;5115582;27;20262;-73
2020/12/01 12:56:12;;;;;;;10.32;6.18;;;11.10;92.10;;;;;;5099772;28;20541;-73
2020/12/01 12:58:39;;;;;;;10.45;6.18;;;11.10;92.20;;;;;;5116705;27;20135;-73
2020/12/01 13:01:06;;;;;;;9.80;6.97;;;11.10;92.30;;;;;;5117689;27;20482;-73
2020/12/01 13:03:34;;;;;;;9.27;6.50;;;11.00;92.20;;;;;;5119037;27;20031;-74
2020/12/01 13:06:01;;;;;;;9.85;6.07;;;10.90;92.30;;;;;;5114214;27;20096;-74
2020/12/01 13:08:29;;;;;;;7.78;5.57;;;10.90;92.50;;;;;;5115151;27;20148;-73
2020/12/01 13:10:56;;;;;;;7.20;5.38;;;10.90;92.70;;;;;;5114554;27;20426;-74
2020/12/01 13:13:24;;;;;;;7.32;5.25;;;10.90;92.60;;;;;;5122844;27;20493;-75
2020/12/01 13:15:52;;;;;;;10.73;6.68;;;11.00;92.70;;;;;;5121706;27;20523;-74
2020/12/01 13:18:19;;;;;;;7.85;5.60;;;10.90;92.90;;;;;;5123751;27;20202;-74
2020/12/01 13:20:46;;;;;;;10.18;7.15;;;11.00;93.00;;;;;;5120802;27;20328;-74
2020/12/01 13:23:14;;;;;;;8.20;5.70;;;11.00;92.50;;;;;;5125896;27;20038;-73
2020/12/01 13:25:41;;;;;;;11.95;6.72;;;11.00;92.30;;;;;;5117393;27;20039;-74
2020/12/01 13:28:08;;;;;;;10.70;6.05;;;11.00;92.30;;;;;;5126770;27;20118;-74
2020/12/01 13:30:37;;;;;;;9.32;6.10;;;11.00;92.50;;;;;;5120899;27;20051;-74
2020/12/01 13:33:04;;;;;;;8.35;6.13;;;11.10;92.60;;;;;;5125084;27;20035;-74
2020/12/01 13:35:31;;;;;;;11.23;7.80;;;11.10;92.50;;;;;;5117166;27;20112;-73
2020/12/01 13:37:59;;;;;;;7.53;5.90;;;11.10;92.80;;;;;;5115175;27;20035;-74
2020/12/01 13:40:26;;;;;;;8.15;5.18;;;11.00;92.60;;;;;;5119273;27;20589;-74
2020/12/01 13:42:54;;;;;;;8.55;5.65;;;11.00;92.00;;;;;;5116290;27;20589;-74
2020/12/01 13:45:21;;;;;;;7.90;5.55;;;11.00;92.40;;;;;;5115277;27;20523;-74
2020/12/01 13:47:49;;;;;;;7.32;5.55;;;11.00;92.30;;;;;;5116600;27;20041;-74